sensor_id;sensor_type;location;lat;lon;timestamp;P1;durP1;ratioP1;P2;durP2;ratioP2
20828;SDS011;10575;50.124;8.582;2022-10-31T00:00:29;15.68;;;9.30;;
20828;SDS011;10575;50.124;8.582;2022-10-31T00:02:55;12.95;;;8.13;;
20828;SDS011;10575;50.124;8.582;2022-10-31T00:05:20;18.10;;;9.23;;
20828;SDS011;10575;50.124;8.582;2022-10-31T00:07:46;18.58;;;9.20;;
20828;SDS011;10575;50.124;8.582;2022-10-31T00:10:11;18.13;;;9.88;;
20828;SDS011;10575;50.124;8.582;2022-10-31T00:12:36;17.63;;;10.55;;
20828;SDS011;10575;50.124;8.582;2022-10-31T00:15:02;21.02;;;10.00;;
20828;SDS011;10575;50.124;8.582;2022-10-31T00:17:28;19.33;;;9.75;;
20828;SDS011;10575;50.124;8.582;2022-10-31T00:19:53;18.58;;;9.30;;
20828;SDS011;10575;50.124;8.582;2022-10-31T00:22:19;14.32;;;10.15;;
20828;SDS011;10575;50.124;8.582;2022-10-31T00:24:44;18.13;;;9.73;;
20828;SDS011;10575;50.124;8.582;2022-10-31T00:27:10;17.20;;;10.43;;
20828;SDS011;10575;50.124;8.582;2022-10-31T00:29:35;21.77;;;9.98;;
20828;SDS011;10575;50.124;8.582;2022-10-31T00:32:01;16.30;;;9.63;;
20828;SDS011;10575;50.124;8.582;2022-10-31T00:34:26;15.52;;;8.82;;
20828;SDS011;10575;50.124;8.582;2022-10-31T00:36:52;16.35;;;8.70;;
20828;SDS011;10575;50.124;8.582;2022-10-31T00:39:17;17.77;;;9.77;;
20828;SDS011;10575;50.124;8.582;2022-10-31T00:41:43;16.27;;;8.15;;
20828;SDS011;10575;50.124;8.582;2022-10-31T00:44:08;17.38;;;8.57;;
20828;SDS011;10575;50.124;8.582;2022-10-31T00:46:33;15.68;;;8.27;;
20828;SDS011;10575;50.124;8.582;2022-10-31T00:48:59;19.20;;;8.70;;
20828;SDS011;10575;50.124;8.582;2022-10-31T00:51:25;12.25;;;7.93;;
20828;SDS011;10575;50.124;8.582;2022-10-31T00:53:50;15.57;;;8.50;;
20828;SDS011;10575;50.124;8.582;2022-10-31T00:56:15;13.02;;;7.82;;
20828;SDS011;10575;50.124;8.582;2022-10-31T00:58:41;13.77;;;7.95;;
20828;SDS011;10575;50.124;8.582;2022-10-31T01:01:06;18.65;;;9.70;;
20828;SDS011;10575;50.124;8.582;2022-10-31T01:03:33;20.42;;;9.00;;
20828;SDS011;10575;50.124;8.582;2022-10-31T01:05:59;16.83;;;8.70;;
20828;SDS011;10575;50.124;8.582;2022-10-31T01:08:25;14.80;;;8.15;;
20828;SDS011;10575;50.124;8.582;2022-10-31T01:10:59;17.60;;;8.80;;
20828;SDS011;10575;50.124;8.582;2022-10-31T01:13:30;17.40;;;9.68;;
20828;SDS011;10575;50.124;8.582;2022-10-31T01:15:56;18.25;;;9.77;;
20828;SDS011;10575;50.124;8.582;2022-10-31T01:18:23;17.33;;;8.82;;
20828;SDS011;10575;50.124;8.582;2022-10-31T01:21:02;15.43;;;9.35;;
20828;SDS011;10575;50.124;8.582;2022-10-31T01:23:30;21.13;;;10.20;;
20828;SDS011;10575;50.124;8.582;2022-10-31T01:26:09;14.30;;;8.98;;
20828;SDS011;10575;50.124;8.582;2022-10-31T01:28:35;16.50;;;9.43;;
20828;SDS011;10575;50.124;8.582;2022-10-31T01:31:03;12.98;;;9.10;;
20828;SDS011;10575;50.124;8.582;2022-10-31T01:33:31;18.70;;;9.75;;
20828;SDS011;10575;50.124;8.582;2022-10-31T01:35:56;17.35;;;8.52;;
20828;SDS011;10575;50.124;8.582;2022-10-31T01:38:22;13.80;;;9.43;;
20828;SDS011;10575;50.124;8.582;2022-10-31T01:40:48;18.25;;;9.63;;
20828;SDS011;10575;50.124;8.582;2022-10-31T01:43:14;16.13;;;8.80;;
20828;SDS011;10575;50.124;8.582;2022-10-31T01:45:44;18.00;;;9.27;;
20828;SDS011;10575;50.124;8.582;2022-10-31T01:48:15;16.02;;;10.05;;
20828;SDS011;10575;50.124;8.582;2022-10-31T01:50:43;17.73;;;10.02;;
20828;SDS011;10575;50.124;8.582;2022-10-31T01:53:13;16.77;;;8.80;;
20828;SDS011;10575;50.124;8.582;2022-10-31T01:55:41;20.23;;;8.40;;
20828;SDS011;10575;50.124;8.582;2022-10-31T01:58:20;12.95;;;8.25;;
20828;SDS011;10575;50.124;8.582;2022-10-31T02:00:50;14.30;;;8.10;;
20828;SDS011;10575;50.124;8.582;2022-10-31T02:03:20;19.25;;;9.10;;
20828;SDS011;10575;50.124;8.582;2022-10-31T02:05:48;13.00;;;7.93;;
20828;SDS011;10575;50.124;8.582;2022-10-31T02:10:45;16.08;;;8.07;;
20828;SDS011;10575;50.124;8.582;2022-10-31T02:13:10;17.92;;;7.85;;
20828;SDS011;10575;50.124;8.582;2022-10-31T02:15:38;15.18;;;7.60;;
20828;SDS011;10575;50.124;8.582;2022-10-31T02:18:05;15.23;;;7.78;;
20828;SDS011;10575;50.124;8.582;2022-10-31T02:20:42;17.15;;;8.68;;
20828;SDS011;10575;50.124;8.582;2022-10-31T02:26:20;15.75;;;8.43;;
20828;SDS011;10575;50.124;8.582;2022-10-31T02:29:18;13.23;;;7.07;;
20828;SDS011;10575;50.124;8.582;2022-10-31T02:38:03;20.20;;;8.75;;
20828;SDS011;10575;50.124;8.582;2022-10-31T02:40:49;19.20;;;9.40;;
20828;SDS011;10575;50.124;8.582;2022-10-31T02:43:27;23.95;;;10.02;;
20828;SDS011;10575;50.124;8.582;2022-10-31T02:45:58;22.42;;;9.55;;
20828;SDS011;10575;50.124;8.582;2022-10-31T02:48:36;20.58;;;9.70;;
20828;SDS011;10575;50.124;8.582;2022-10-31T02:51:04;20.33;;;8.95;;
20828;SDS011;10575;50.124;8.582;2022-10-31T02:53:34;21.55;;;9.55;;
20828;SDS011;10575;50.124;8.582;2022-10-31T02:56:05;17.25;;;9.90;;
20828;SDS011;10575;50.124;8.582;2022-10-31T02:58:36;19.02;;;8.80;;
20828;SDS011;10575;50.124;8.582;2022-10-31T03:01:10;16.60;;;8.38;;
20828;SDS011;10575;50.124;8.582;2022-10-31T03:06:35;20.00;;;9.20;;
20828;SDS011;10575;50.124;8.582;2022-10-31T03:12:04;18.70;;;9.35;;
20828;SDS011;10575;50.124;8.582;2022-10-31T03:14:38;35.80;;;9.77;;
20828;SDS011;10575;50.124;8.582;2022-10-31T03:17:09;19.75;;;9.85;;
20828;SDS011;10575;50.124;8.582;2022-10-31T03:19:45;20.67;;;9.77;;
20828;SDS011;10575;50.124;8.582;2022-10-31T03:22:19;23.98;;;9.75;;
20828;SDS011;10575;50.124;8.582;2022-10-31T03:24:47;16.83;;;8.93;;
20828;SDS011;10575;50.124;8.582;2022-10-31T03:27:18;22.02;;;9.90;;
20828;SDS011;10575;50.124;8.582;2022-10-31T03:29:49;22.40;;;9.05;;
20828;SDS011;10575;50.124;8.582;2022-10-31T03:32:17;21.92;;;9.77;;
20828;SDS011;10575;50.124;8.582;2022-10-31T03:34:49;20.67;;;10.00;;
20828;SDS011;10575;50.124;8.582;2022-10-31T03:37:18;18.30;;;9.65;;
20828;SDS011;10575;50.124;8.582;2022-10-31T03:39:46;20.98;;;9.45;;
20828;SDS011;10575;50.124;8.582;2022-10-31T03:42:14;25.90;;;9.93;;
20828;SDS011;10575;50.124;8.582;2022-10-31T03:45:07;19.73;;;9.93;;
20828;SDS011;10575;50.124;8.582;2022-10-31T03:47:33;15.20;;;8.90;;
20828;SDS011;10575;50.124;8.582;2022-10-31T03:50:01;17.15;;;8.85;;
20828;SDS011;10575;50.124;8.582;2022-10-31T03:52:35;19.33;;;8.82;;
20828;SDS011;10575;50.124;8.582;2022-10-31T03:55:17;24.40;;;9.10;;
20828;SDS011;10575;50.124;8.582;2022-10-31T03:57:48;18.30;;;8.57;;
20828;SDS011;10575;50.124;8.582;2022-10-31T04:00:21;16.08;;;8.80;;
20828;SDS011;10575;50.124;8.582;2022-10-31T04:05:31;13.00;;;7.78;;
20828;SDS011;10575;50.124;8.582;2022-10-31T04:07:58;15.75;;;8.13;;
20828;SDS011;10575;50.124;8.582;2022-10-31T04:10:27;19.73;;;9.07;;
20828;SDS011;10575;50.124;8.582;2022-10-31T04:12:56;18.33;;;9.05;;
20828;SDS011;10575;50.124;8.582;2022-10-31T04:15:27;17.08;;;9.70;;
20828;SDS011;10575;50.124;8.582;2022-10-31T04:17:55;17.00;;;9.40;;
20828;SDS011;10575;50.124;8.582;2022-10-31T04:20:32;16.40;;;8.55;;
20828;SDS011;10575;50.124;8.582;2022-10-31T04:23:03;16.95;;;9.85;;
20828;SDS011;10575;50.124;8.582;2022-10-31T04:25:29;16.55;;;10.00;;
20828;SDS011;10575;50.124;8.582;2022-10-31T04:27:54;17.42;;;11.05;;
20828;SDS011;10575;50.124;8.582;2022-10-31T04:30:20;19.17;;;10.13;;
20828;SDS011;10575;50.124;8.582;2022-10-31T04:32:46;17.35;;;9.27;;
20828;SDS011;10575;50.124;8.582;2022-10-31T04:35:12;17.48;;;9.77;;
20828;SDS011;10575;50.124;8.582;2022-10-31T04:37:37;15.65;;;9.20;;
20828;SDS011;10575;50.124;8.582;2022-10-31T04:40:03;14.80;;;8.85;;
20828;SDS011;10575;50.124;8.582;2022-10-31T04:42:29;16.25;;;8.95;;
20828;SDS011;10575;50.124;8.582;2022-10-31T04:44:55;24.25;;;10.25;;
20828;SDS011;10575;50.124;8.582;2022-10-31T04:47:21;23.70;;;9.88;;
20828;SDS011;10575;50.124;8.582;2022-10-31T04:49:46;20.40;;;9.70;;
20828;SDS011;10575;50.124;8.582;2022-10-31T04:52:12;17.58;;;9.73;;
20828;SDS011;10575;50.124;8.582;2022-10-31T04:54:38;18.85;;;9.43;;
20828;SDS011;10575;50.124;8.582;2022-10-31T04:57:04;20.70;;;10.05;;
20828;SDS011;10575;50.124;8.582;2022-10-31T04:59:29;19.05;;;10.57;;
20828;SDS011;10575;50.124;8.582;2022-10-31T05:01:55;27.08;;;10.30;;
20828;SDS011;10575;50.124;8.582;2022-10-31T05:04:20;21.73;;;9.93;;
20828;SDS011;10575;50.124;8.582;2022-10-31T05:06:46;19.98;;;10.23;;
20828;SDS011;10575;50.124;8.582;2022-10-31T05:09:11;19.42;;;10.77;;
20828;SDS011;10575;50.124;8.582;2022-10-31T05:11:37;19.38;;;10.27;;
20828;SDS011;10575;50.124;8.582;2022-10-31T05:14:02;18.98;;;9.45;;
20828;SDS011;10575;50.124;8.582;2022-10-31T05:16:28;22.80;;;9.63;;
20828;SDS011;10575;50.124;8.582;2022-10-31T05:18:53;25.02;;;10.38;;
20828;SDS011;10575;50.124;8.582;2022-10-31T05:21:19;19.67;;;9.50;;
20828;SDS011;10575;50.124;8.582;2022-10-31T05:23:45;15.95;;;8.85;;
20828;SDS011;10575;50.124;8.582;2022-10-31T05:26:10;17.85;;;9.18;;
20828;SDS011;10575;50.124;8.582;2022-10-31T05:28:36;19.05;;;9.02;;
20828;SDS011;10575;50.124;8.582;2022-10-31T05:31:01;22.20;;;10.00;;
20828;SDS011;10575;50.124;8.582;2022-10-31T05:33:27;22.10;;;9.25;;
20828;SDS011;10575;50.124;8.582;2022-10-31T05:35:52;28.35;;;11.07;;
20828;SDS011;10575;50.124;8.582;2022-10-31T05:38:18;23.70;;;10.23;;
20828;SDS011;10575;50.124;8.582;2022-10-31T05:40:43;19.98;;;10.23;;
20828;SDS011;10575;50.124;8.582;2022-10-31T05:43:09;26.50;;;11.38;;
20828;SDS011;10575;50.124;8.582;2022-10-31T05:45:34;20.00;;;10.15;;
20828;SDS011;10575;50.124;8.582;2022-10-31T05:48:00;19.80;;;10.63;;
20828;SDS011;10575;50.124;8.582;2022-10-31T05:50:27;21.23;;;11.13;;
20828;SDS011;10575;50.124;8.582;2022-10-31T05:52:59;20.23;;;10.38;;
20828;SDS011;10575;50.124;8.582;2022-10-31T05:55:26;21.85;;;10.35;;
20828;SDS011;10575;50.124;8.582;2022-10-31T05:57:53;16.92;;;9.35;;
20828;SDS011;10575;50.124;8.582;2022-10-31T06:00:19;20.80;;;10.93;;
20828;SDS011;10575;50.124;8.582;2022-10-31T06:02:45;20.85;;;10.30;;
20828;SDS011;10575;50.124;8.582;2022-10-31T06:05:11;16.38;;;9.77;;
20828;SDS011;10575;50.124;8.582;2022-10-31T06:07:37;24.80;;;10.35;;
20828;SDS011;10575;50.124;8.582;2022-10-31T06:10:03;17.42;;;9.07;;
20828;SDS011;10575;50.124;8.582;2022-10-31T06:12:31;16.92;;;8.88;;
20828;SDS011;10575;50.124;8.582;2022-10-31T06:14:56;17.25;;;8.82;;
20828;SDS011;10575;50.124;8.582;2022-10-31T06:17:22;24.05;;;10.38;;
20828;SDS011;10575;50.124;8.582;2022-10-31T06:19:48;17.55;;;10.13;;
20828;SDS011;10575;50.124;8.582;2022-10-31T06:22:13;22.77;;;9.27;;
20828;SDS011;10575;50.124;8.582;2022-10-31T06:24:39;21.70;;;9.05;;
20828;SDS011;10575;50.124;8.582;2022-10-31T06:27:04;18.05;;;9.45;;
20828;SDS011;10575;50.124;8.582;2022-10-31T06:29:30;18.95;;;10.65;;
20828;SDS011;10575;50.124;8.582;2022-10-31T06:31:56;17.92;;;9.40;;
20828;SDS011;10575;50.124;8.582;2022-10-31T06:34:22;14.35;;;8.30;;
20828;SDS011;10575;50.124;8.582;2022-10-31T06:36:47;17.08;;;8.90;;
20828;SDS011;10575;50.124;8.582;2022-10-31T06:39:13;17.38;;;9.23;;
20828;SDS011;10575;50.124;8.582;2022-10-31T06:41:39;19.55;;;8.93;;
20828;SDS011;10575;50.124;8.582;2022-10-31T06:44:06;22.20;;;9.25;;
20828;SDS011;10575;50.124;8.582;2022-10-31T06:46:32;15.07;;;9.13;;
20828;SDS011;10575;50.124;8.582;2022-10-31T06:48:58;19.65;;;9.25;;
20828;SDS011;10575;50.124;8.582;2022-10-31T06:51:24;17.42;;;9.48;;
20828;SDS011;10575;50.124;8.582;2022-10-31T06:53:49;27.60;;;12.10;;
20828;SDS011;10575;50.124;8.582;2022-10-31T06:56:15;23.63;;;11.02;;
20828;SDS011;10575;50.124;8.582;2022-10-31T06:58:41;17.30;;;9.80;;
20828;SDS011;10575;50.124;8.582;2022-10-31T07:01:06;16.30;;;9.40;;
20828;SDS011;10575;50.124;8.582;2022-10-31T07:03:32;14.90;;;8.80;;
20828;SDS011;10575;50.124;8.582;2022-10-31T07:05:57;21.85;;;8.63;;
20828;SDS011;10575;50.124;8.582;2022-10-31T07:08:23;18.30;;;9.65;;
20828;SDS011;10575;50.124;8.582;2022-10-31T07:10:55;21.25;;;9.35;;
20828;SDS011;10575;50.124;8.582;2022-10-31T07:13:22;22.75;;;9.18;;
20828;SDS011;10575;50.124;8.582;2022-10-31T07:15:50;20.13;;;9.30;;
20828;SDS011;10575;50.124;8.582;2022-10-31T07:18:18;17.40;;;9.25;;
20828;SDS011;10575;50.124;8.582;2022-10-31T07:20:44;18.08;;;8.95;;
20828;SDS011;10575;50.124;8.582;2022-10-31T07:23:10;15.65;;;9.48;;
20828;SDS011;10575;50.124;8.582;2022-10-31T07:25:36;17.42;;;10.10;;
20828;SDS011;10575;50.124;8.582;2022-10-31T07:28:02;24.17;;;10.43;;
20828;SDS011;10575;50.124;8.582;2022-10-31T07:30:28;18.25;;;9.82;;
20828;SDS011;10575;50.124;8.582;2022-10-31T07:32:53;18.38;;;9.25;;
20828;SDS011;10575;50.124;8.582;2022-10-31T07:35:29;15.90;;;9.40;;
20828;SDS011;10575;50.124;8.582;2022-10-31T07:37:55;23.63;;;10.50;;
20828;SDS011;10575;50.124;8.582;2022-10-31T07:40:21;11.75;;;8.10;;
20828;SDS011;10575;50.124;8.582;2022-10-31T07:42:48;18.00;;;9.68;;
20828;SDS011;10575;50.124;8.582;2022-10-31T07:45:16;14.65;;;8.95;;
20828;SDS011;10575;50.124;8.582;2022-10-31T07:47:44;16.98;;;9.93;;
20828;SDS011;10575;50.124;8.582;2022-10-31T07:50:15;12.57;;;7.97;;
20828;SDS011;10575;50.124;8.582;2022-10-31T07:52:42;16.67;;;8.50;;
20828;SDS011;10575;50.124;8.582;2022-10-31T07:55:08;12.07;;;7.85;;
20828;SDS011;10575;50.124;8.582;2022-10-31T07:57:34;18.77;;;9.50;;
20828;SDS011;10575;50.124;8.582;2022-10-31T08:00:02;12.70;;;8.45;;
20828;SDS011;10575;50.124;8.582;2022-10-31T08:02:31;19.40;;;8.88;;
20828;SDS011;10575;50.124;8.582;2022-10-31T08:04:56;19.35;;;8.90;;
20828;SDS011;10575;50.124;8.582;2022-10-31T08:07:22;18.08;;;9.52;;
20828;SDS011;10575;50.124;8.582;2022-10-31T08:09:48;11.38;;;7.57;;
20828;SDS011;10575;50.124;8.582;2022-10-31T08:12:13;17.52;;;9.00;;
20828;SDS011;10575;50.124;8.582;2022-10-31T08:14:39;15.45;;;8.27;;
20828;SDS011;10575;50.124;8.582;2022-10-31T08:17:04;16.38;;;8.57;;
20828;SDS011;10575;50.124;8.582;2022-10-31T08:19:30;16.80;;;8.43;;
20828;SDS011;10575;50.124;8.582;2022-10-31T08:21:55;15.30;;;8.18;;
20828;SDS011;10575;50.124;8.582;2022-10-31T08:24:21;19.25;;;9.63;;
20828;SDS011;10575;50.124;8.582;2022-10-31T08:26:47;17.25;;;9.80;;
20828;SDS011;10575;50.124;8.582;2022-10-31T08:29:13;21.77;;;9.55;;
20828;SDS011;10575;50.124;8.582;2022-10-31T08:31:39;16.80;;;9.90;;
20828;SDS011;10575;50.124;8.582;2022-10-31T08:34:05;12.95;;;8.48;;
20828;SDS011;10575;50.124;8.582;2022-10-31T08:36:32;15.10;;;8.88;;
20828;SDS011;10575;50.124;8.582;2022-10-31T08:38:57;16.00;;;9.88;;
20828;SDS011;10575;50.124;8.582;2022-10-31T08:41:23;15.77;;;8.18;;
20828;SDS011;10575;50.124;8.582;2022-10-31T08:43:49;12.10;;;8.77;;
20828;SDS011;10575;50.124;8.582;2022-10-31T08:46:14;13.35;;;8.57;;
20828;SDS011;10575;50.124;8.582;2022-10-31T08:48:40;17.10;;;9.10;;
20828;SDS011;10575;50.124;8.582;2022-10-31T08:51:06;14.18;;;8.98;;
20828;SDS011;10575;50.124;8.582;2022-10-31T08:53:31;11.52;;;7.80;;
20828;SDS011;10575;50.124;8.582;2022-10-31T08:55:57;15.68;;;9.48;;
20828;SDS011;10575;50.124;8.582;2022-10-31T08:58:23;15.65;;;8.98;;
20828;SDS011;10575;50.124;8.582;2022-10-31T09:00:50;13.57;;;8.13;;
20828;SDS011;10575;50.124;8.582;2022-10-31T09:03:21;16.45;;;8.93;;
20828;SDS011;10575;50.124;8.582;2022-10-31T09:05:54;13.13;;;8.90;;
20828;SDS011;10575;50.124;8.582;2022-10-31T09:08:21;16.35;;;8.40;;
20828;SDS011;10575;50.124;8.582;2022-10-31T09:10:47;12.30;;;8.30;;
20828;SDS011;10575;50.124;8.582;2022-10-31T09:13:14;13.95;;;8.20;;
20828;SDS011;10575;50.124;8.582;2022-10-31T09:15:42;16.65;;;9.30;;
20828;SDS011;10575;50.124;8.582;2022-10-31T09:18:09;13.23;;;8.80;;
20828;SDS011;10575;50.124;8.582;2022-10-31T09:20:36;18.67;;;9.85;;
20828;SDS011;10575;50.124;8.582;2022-10-31T09:23:13;15.75;;;9.68;;
20828;SDS011;10575;50.124;8.582;2022-10-31T09:25:43;16.80;;;10.25;;
20828;SDS011;10575;50.124;8.582;2022-10-31T09:28:10;17.05;;;9.90;;
20828;SDS011;10575;50.124;8.582;2022-10-31T09:30:38;15.77;;;10.70;;
20828;SDS011;10575;50.124;8.582;2022-10-31T09:33:09;21.33;;;10.77;;
20828;SDS011;10575;50.124;8.582;2022-10-31T09:35:35;17.20;;;10.32;;
20828;SDS011;10575;50.124;8.582;2022-10-31T09:38:03;20.90;;;10.68;;
20828;SDS011;10575;50.124;8.582;2022-10-31T09:40:37;22.88;;;11.45;;
20828;SDS011;10575;50.124;8.582;2022-10-31T09:48:44;18.65;;;9.98;;
20828;SDS011;10575;50.124;8.582;2022-10-31T09:51:30;17.45;;;10.10;;
20828;SDS011;10575;50.124;8.582;2022-10-31T09:54:09;18.25;;;9.98;;
20828;SDS011;10575;50.124;8.582;2022-10-31T09:56:48;16.30;;;9.60;;
20828;SDS011;10575;50.124;8.582;2022-10-31T09:59:17;16.98;;;8.63;;
20828;SDS011;10575;50.124;8.582;2022-10-31T10:04:51;13.50;;;8.38;;
20828;SDS011;10575;50.124;8.582;2022-10-31T10:10:28;17.77;;;9.00;;
20828;SDS011;10575;50.124;8.582;2022-10-31T10:19:14;17.02;;;10.27;;
20828;SDS011;10575;50.124;8.582;2022-10-31T10:24:27;20.48;;;10.82;;
20828;SDS011;10575;50.124;8.582;2022-10-31T10:27:13;19.70;;;11.45;;
20828;SDS011;10575;50.124;8.582;2022-10-31T10:29:55;14.65;;;9.77;;
20828;SDS011;10575;50.124;8.582;2022-10-31T10:32:24;18.35;;;11.32;;
20828;SDS011;10575;50.124;8.582;2022-10-31T10:35:02;19.23;;;10.43;;
20828;SDS011;10575;50.124;8.582;2022-10-31T10:37:37;21.65;;;11.63;;
20828;SDS011;10575;50.124;8.582;2022-10-31T10:40:20;15.48;;;10.88;;
20828;SDS011;10575;50.124;8.582;2022-10-31T10:46:06;24.13;;;11.98;;
20828;SDS011;10575;50.124;8.582;2022-10-31T10:49:18;23.27;;;11.65;;
20828;SDS011;10575;50.124;8.582;2022-10-31T10:52:02;26.10;;;12.65;;
20828;SDS011;10575;50.124;8.582;2022-10-31T10:57:38;21.73;;;11.40;;
20828;SDS011;10575;50.124;8.582;2022-10-31T11:00:21;22.23;;;11.52;;
20828;SDS011;10575;50.124;8.582;2022-10-31T11:03:06;16.98;;;10.40;;
20828;SDS011;10575;50.124;8.582;2022-10-31T11:05:42;23.77;;;12.60;;
20828;SDS011;10575;50.124;8.582;2022-10-31T11:08:26;20.15;;;11.40;;
20828;SDS011;10575;50.124;8.582;2022-10-31T11:10:58;22.70;;;12.82;;
20828;SDS011;10575;50.124;8.582;2022-10-31T11:13:33;21.90;;;11.43;;
20828;SDS011;10575;50.124;8.582;2022-10-31T11:16:00;18.02;;;11.52;;
20828;SDS011;10575;50.124;8.582;2022-10-31T11:18:50;22.20;;;10.18;;
20828;SDS011;10575;50.124;8.582;2022-10-31T11:21:29;18.20;;;11.00;;
20828;SDS011;10575;50.124;8.582;2022-10-31T11:26:41;20.60;;;11.70;;
20828;SDS011;10575;50.124;8.582;2022-10-31T11:29:27;21.10;;;11.75;;
20828;SDS011;10575;50.124;8.582;2022-10-31T11:31:53;21.83;;;11.65;;
20828;SDS011;10575;50.124;8.582;2022-10-31T11:34:37;17.42;;;10.75;;
20828;SDS011;10575;50.124;8.582;2022-10-31T11:39:40;20.50;;;9.75;;
20828;SDS011;10575;50.124;8.582;2022-10-31T11:42:08;14.73;;;10.20;;
20828;SDS011;10575;50.124;8.582;2022-10-31T11:44:33;20.17;;;10.43;;
20828;SDS011;10575;50.124;8.582;2022-10-31T11:47:00;20.27;;;10.48;;
20828;SDS011;10575;50.124;8.582;2022-10-31T11:49:36;21.75;;;11.50;;
20828;SDS011;10575;50.124;8.582;2022-10-31T11:52:05;22.35;;;11.82;;
20828;SDS011;10575;50.124;8.582;2022-10-31T11:54:55;26.40;;;11.52;;
20828;SDS011;10575;50.124;8.582;2022-10-31T11:57:28;15.82;;;10.05;;
20828;SDS011;10575;50.124;8.582;2022-10-31T12:00:01;19.58;;;9.80;;
20828;SDS011;10575;50.124;8.582;2022-10-31T12:02:28;14.95;;;9.75;;
20828;SDS011;10575;50.124;8.582;2022-10-31T12:07:29;14.98;;;8.35;;
20828;SDS011;10575;50.124;8.582;2022-10-31T12:09:55;17.45;;;9.98;;
20828;SDS011;10575;50.124;8.582;2022-10-31T12:12:31;19.17;;;9.85;;
20828;SDS011;10575;50.124;8.582;2022-10-31T12:17:49;19.70;;;9.80;;
20828;SDS011;10575;50.124;8.582;2022-10-31T12:23:19;20.17;;;10.77;;
20828;SDS011;10575;50.124;8.582;2022-10-31T12:26:19;22.80;;;9.05;;
20828;SDS011;10575;50.124;8.582;2022-10-31T12:31:56;20.08;;;9.20;;
20828;SDS011;10575;50.124;8.582;2022-10-31T12:34:48;19.90;;;9.32;;
20828;SDS011;10575;50.124;8.582;2022-10-31T12:37:45;20.48;;;10.25;;
20828;SDS011;10575;50.124;8.582;2022-10-31T12:40:31;16.23;;;8.98;;
20828;SDS011;10575;50.124;8.582;2022-10-31T12:43:02;20.15;;;10.10;;
20828;SDS011;10575;50.124;8.582;2022-10-31T12:45:39;19.13;;;9.05;;
20828;SDS011;10575;50.124;8.582;2022-10-31T12:51:21;15.88;;;9.20;;
20828;SDS011;10575;50.124;8.582;2022-10-31T12:54:15;15.82;;;8.10;;
20828;SDS011;10575;50.124;8.582;2022-10-31T12:59:37;17.58;;;8.15;;
20828;SDS011;10575;50.124;8.582;2022-10-31T13:04:54;13.48;;;6.45;;
20828;SDS011;10575;50.124;8.582;2022-10-31T13:07:32;20.63;;;7.78;;
20828;SDS011;10575;50.124;8.582;2022-10-31T13:10:22;10.93;;;6.55;;
20828;SDS011;10575;50.124;8.582;2022-10-31T13:12:51;18.05;;;8.40;;
20828;SDS011;10575;50.124;8.582;2022-10-31T13:15:24;17.42;;;7.70;;
20828;SDS011;10575;50.124;8.582;2022-10-31T13:17:54;17.70;;;7.65;;
20828;SDS011;10575;50.124;8.582;2022-10-31T13:20:32;18.27;;;7.93;;
20828;SDS011;10575;50.124;8.582;2022-10-31T13:25:55;15.90;;;7.43;;
20828;SDS011;10575;50.124;8.582;2022-10-31T13:28:27;13.40;;;6.03;;
20828;SDS011;10575;50.124;8.582;2022-10-31T13:30:54;16.52;;;5.85;;
20828;SDS011;10575;50.124;8.582;2022-10-31T13:33:25;14.60;;;6.07;;
20828;SDS011;10575;50.124;8.582;2022-10-31T13:41:43;20.45;;;7.20;;
20828;SDS011;10575;50.124;8.582;2022-10-31T13:46:45;13.75;;;7.30;;
20828;SDS011;10575;50.124;8.582;2022-10-31T13:52:05;11.15;;;6.47;;
20828;SDS011;10575;50.124;8.582;2022-10-31T13:54:34;11.82;;;6.43;;
20828;SDS011;10575;50.124;8.582;2022-10-31T13:57:02;17.27;;;7.68;;
20828;SDS011;10575;50.124;8.582;2022-10-31T13:59:37;16.95;;;7.70;;
20828;SDS011;10575;50.124;8.582;2022-10-31T14:02:12;14.48;;;6.25;;
20828;SDS011;10575;50.124;8.582;2022-10-31T14:04:47;18.27;;;5.65;;
20828;SDS011;10575;50.124;8.582;2022-10-31T14:07:16;13.55;;;6.40;;
20828;SDS011;10575;50.124;8.582;2022-10-31T14:09:53;15.38;;;6.80;;
20828;SDS011;10575;50.124;8.582;2022-10-31T14:14:51;15.77;;;6.70;;
20828;SDS011;10575;50.124;8.582;2022-10-31T14:17:25;10.35;;;6.13;;
20828;SDS011;10575;50.124;8.582;2022-10-31T14:22:36;15.55;;;6.68;;
20828;SDS011;10575;50.124;8.582;2022-10-31T14:27:52;12.25;;;6.32;;
20828;SDS011;10575;50.124;8.582;2022-10-31T14:30:19;12.43;;;6.78;;
20828;SDS011;10575;50.124;8.582;2022-10-31T14:33:09;16.05;;;8.20;;
20828;SDS011;10575;50.124;8.582;2022-10-31T14:36:02;17.20;;;7.03;;
20828;SDS011;10575;50.124;8.582;2022-10-31T14:41:18;15.85;;;7.20;;
20828;SDS011;10575;50.124;8.582;2022-10-31T14:44:02;13.48;;;6.63;;
20828;SDS011;10575;50.124;8.582;2022-10-31T14:47:11;13.68;;;6.22;;
20828;SDS011;10575;50.124;8.582;2022-10-31T14:49:48;12.18;;;6.25;;
20828;SDS011;10575;50.124;8.582;2022-10-31T14:52:28;9.73;;;5.75;;
20828;SDS011;10575;50.124;8.582;2022-10-31T14:54:54;10.90;;;5.63;;
20828;SDS011;10575;50.124;8.582;2022-10-31T14:57:22;11.75;;;4.78;;
20828;SDS011;10575;50.124;8.582;2022-10-31T14:59:53;14.48;;;6.05;;
20828;SDS011;10575;50.124;8.582;2022-10-31T15:02:38;10.27;;;5.32;;
20828;SDS011;10575;50.124;8.582;2022-10-31T15:05:25;9.70;;;4.68;;
20828;SDS011;10575;50.124;8.582;2022-10-31T15:07:53;17.77;;;4.93;;
20828;SDS011;10575;50.124;8.582;2022-10-31T15:10:25;7.30;;;4.40;;
20828;SDS011;10575;50.124;8.582;2022-10-31T15:12:54;12.00;;;6.40;;
20828;SDS011;10575;50.124;8.582;2022-10-31T15:15:21;11.15;;;6.10;;
20828;SDS011;10575;50.124;8.582;2022-10-31T15:17:58;9.95;;;5.25;;
20828;SDS011;10575;50.124;8.582;2022-10-31T15:20:25;11.18;;;5.30;;
20828;SDS011;10575;50.124;8.582;2022-10-31T15:22:58;8.60;;;5.47;;
20828;SDS011;10575;50.124;8.582;2022-10-31T15:25:27;11.35;;;6.03;;
20828;SDS011;10575;50.124;8.582;2022-10-31T15:27:57;13.02;;;7.57;;
20828;SDS011;10575;50.124;8.582;2022-10-31T15:30:23;16.60;;;6.78;;
20828;SDS011;10575;50.124;8.582;2022-10-31T15:32:51;11.43;;;5.32;;
20828;SDS011;10575;50.124;8.582;2022-10-31T15:35:22;11.48;;;6.15;;
20828;SDS011;10575;50.124;8.582;2022-10-31T15:37:51;12.32;;;6.95;;
20828;SDS011;10575;50.124;8.582;2022-10-31T15:40:18;12.73;;;6.63;;
20828;SDS011;10575;50.124;8.582;2022-10-31T15:42:57;10.98;;;6.60;;
20828;SDS011;10575;50.124;8.582;2022-10-31T15:45:26;14.25;;;6.53;;
20828;SDS011;10575;50.124;8.582;2022-10-31T15:47:54;13.90;;;7.07;;
20828;SDS011;10575;50.124;8.582;2022-10-31T15:50:41;10.98;;;6.55;;
20828;SDS011;10575;50.124;8.582;2022-10-31T15:53:37;11.48;;;6.53;;
20828;SDS011;10575;50.124;8.582;2022-10-31T15:56:02;13.07;;;6.70;;
20828;SDS011;10575;50.124;8.582;2022-10-31T15:58:32;14.30;;;6.63;;
20828;SDS011;10575;50.124;8.582;2022-10-31T16:01:05;16.20;;;6.75;;
20828;SDS011;10575;50.124;8.582;2022-10-31T16:03:43;11.95;;;6.68;;
20828;SDS011;10575;50.124;8.582;2022-10-31T16:06:20;19.13;;;7.45;;
20828;SDS011;10575;50.124;8.582;2022-10-31T16:08:46;11.07;;;7.00;;
20828;SDS011;10575;50.124;8.582;2022-10-31T16:11:15;11.00;;;6.45;;
20828;SDS011;10575;50.124;8.582;2022-10-31T16:16:25;19.30;;;7.80;;
20828;SDS011;10575;50.124;8.582;2022-10-31T16:18:52;13.20;;;7.00;;
20828;SDS011;10575;50.124;8.582;2022-10-31T16:21:29;17.30;;;8.30;;
20828;SDS011;10575;50.124;8.582;2022-10-31T16:23:59;15.52;;;8.27;;
20828;SDS011;10575;50.124;8.582;2022-10-31T16:26:28;15.23;;;7.82;;
20828;SDS011;10575;50.124;8.582;2022-10-31T16:28:54;22.73;;;8.80;;